Time;durP1;ratioP1;P1;durP2;ratioP2;P2;SDS_P1;SDS_P2;PMS_P1;PMS_P2;Temp;Humidity;BMP_temperature;BMP_pressure;BME280_temperature;BME280_humidity;BME280_pressure;Samples;Min_cycle;Max_cycle;Signal;HPM_P1;HPM_P2
2022/04/11 00:00:47;;;;;;;3.45;3.08;;;;;;;1.82;61.81;101322.44;5017515;28;20121;-25
2022/04/11 00:03:13;;;;;;;5.10;3.10;;;;;;;1.79;61.66;101319.72;5020582;28;20037;-26
2022/04/11 00:05:38;;;;;;;3.90;3.17;;;;;;;1.75;61.87;101318.72;5017930;28;20022;-26
2022/04/11 00:08:04;;;;;;;3.90;3.45;;;;;;;1.71;61.65;101315.94;5020112;28;20391;-25
2022/04/11 00:10:29;;;;;;;3.97;3.45;;;;;;;1.69;61.84;101312.38;5020472;28;20025;-26
2022/04/11 00:13:05;;;;;;;4.32;2.92;;;;;;;1.67;61.78;101315.81;5019279;28;20021;-26
2022/04/11 00:15:33;;;;;;;3.47;3.05;;;;;;;1.65;61.79;101317.50;5025409;28;20029;-25
2022/04/11 00:18:01;;;;;;;3.97;3.08;;;;;;;1.62;62.06;101316.47;5019175;28;20029;-25
2022/04/11 00:20:26;;;;;;;4.05;2.92;;;;;;;1.60;62.03;101310.34;5026231;28;20030;-25
2022/04/11 00:22:52;;;;;;;5.97;3.22;;;;;;;1.56;62.33;101317.13;5026196;28;20032;-24
2022/04/11 00:25:17;;;;;;;3.00;2.70;;;;;;;1.54;62.16;101309.28;5027635;28;20033;-26
2022/04/11 00:27:42;;;;;;;4.15;3.13;;;;;;;1.49;61.96;101307.31;5027997;28;20475;-26
2022/04/11 00:30:08;;;;;;;4.10;3.08;;;;;;;1.48;62.13;101318.56;5019813;28;20110;-26
2022/04/11 00:32:40;;;;;;;4.57;3.22;;;;;;;1.46;62.02;101313.28;5022527;28;20037;-26
2022/04/11 00:35:08;;;;;;;4.10;3.15;;;;;;;1.41;62.09;101313.09;5018882;28;20029;-26
2022/04/11 00:37:34;;;;;;;6.00;3.33;;;;;;;1.37;62.07;101311.22;5021068;28;20545;-26
2022/04/11 00:40:00;;;;;;;6.65;3.97;;;;;;;1.34;62.17;101313.72;5026817;28;20029;-25
2022/04/11 00:42:28;;;;;;;3.55;3.08;;;;;;;1.33;62.27;101318.84;5029044;28;20363;-25
2022/04/11 00:44:54;;;;;;;5.80;4.00;;;;;;;1.30;62.35;101314.41;5026220;28;20518;-26
2022/04/11 00:47:19;;;;;;;5.05;3.58;;;;;;;1.27;62.73;101319.50;5026796;28;20060;-26
2022/04/11 00:49:45;;;;;;;3.65;3.35;;;;;;;1.25;62.37;101321.13;5021094;28;20025;-25
2022/04/11 00:52:11;;;;;;;5.03;3.47;;;;;;;1.23;62.38;101322.81;5026388;28;20025;-24
2022/04/11 00:54:37;;;;;;;4.68;3.20;;;;;;;1.21;63.08;101325.34;5029794;28;20040;-26
2022/04/11 00:57:04;;;;;;;4.45;3.50;;;;;;;1.20;62.34;101325.28;5029716;28;20467;-25
2022/04/11 00:59:29;;;;;;;6.55;3.38;;;;;;;1.17;62.44;101322.56;5023361;28;20036;-26
2022/04/11 01:01:54;;;;;;;4.82;4.15;;;;;;;1.13;62.79;101327.63;5021590;28;20479;-26
2022/04/11 01:04:23;;;;;;;5.80;3.40;;;;;;;1.11;62.40;101328.38;5015184;28;20017;-25
2022/04/11 01:06:57;;;;;;;5.32;3.60;;;;;;;1.08;62.86;101333.44;5018576;28;20048;-26
2022/04/11 01:09:23;;;;;;;5.70;3.55;;;;;;;1.05;62.73;101333.31;5015126;28;20488;-26
2022/04/11 01:11:49;;;;;;;6.10;3.85;;;;;;;1.04;62.84;101335.06;5019950;28;20032;-26
2022/04/11 01:14:14;;;;;;;4.97;3.72;;;;;;;1.03;62.56;101328.06;5020946;28;20395;-25
2022/04/11 01:16:39;;;;;;;4.72;3.70;;;;;;;0.99;62.48;101339.16;5016405;28;20029;-25
2022/04/11 01:19:05;;;;;;;5.78;3.55;;;;;;;0.96;62.56;101336.44;5016139;28;20025;-25
2022/04/11 01:21:31;;;;;;;8.27;4.22;;;;;;;0.93;62.92;101332.00;5018269;28;20171;-25
2022/04/11 01:23:57;;;;;;;4.55;3.88;;;;;;;0.92;62.92;101326.72;5025429;28;20111;-26
2022/04/11 01:26:23;;;;;;;7.68;3.90;;;;;;;0.88;62.62;101329.22;5019758;28;20610;-25
2022/04/11 01:28:48;;;;;;;6.60;3.65;;;;;;;0.85;62.89;101323.91;5020954;28;20033;-26
2022/04/11 01:31:15;;;;;;;6.30;4.03;;;;;;;0.84;63.09;101324.69;5027588;28;20087;-25
2022/04/11 01:33:41;;;;;;;5.95;3.63;;;;;;;0.80;62.80;101321.94;5027072;28;20021;-24
2022/04/11 01:36:06;;;;;;;4.50;3.55;;;;;;;0.81;62.57;101323.69;5022992;28;20029;-25
2022/04/11 01:38:32;;;;;;;6.88;4.03;;;;;;;0.74;62.82;101322.56;5025745;28;20078;-23
2022/04/11 01:40:58;;;;;;;5.68;3.85;;;;;;;0.74;62.84;101327.75;5023449;28;20079;-26
2022/04/11 01:43:24;;;;;;;6.18;4.78;;;;;;;0.72;62.75;101324.19;5024122;28;20032;-25
2022/04/11 01:45:50;;;;;;;6.45;3.40;;;;;;;0.71;62.97;101327.63;5009198;28;20040;-25
2022/04/11 01:48:16;;;;;;;5.68;3.92;;;;;;;0.70;63.16;101325.88;5024055;28;20026;-25
2022/04/11 01:50:42;;;;;;;4.80;3.53;;;;;;;0.67;62.72;101328.31;5026924;28;20108;-26
2022/04/11 01:53:11;;;;;;;6.90;4.00;;;;;;;0.64;63.00;101323.91;5027964;28;20430;-25
2022/04/11 01:55:37;;;;;;;6.45;3.53;;;;;;;0.61;62.92;101315.97;5025061;28;20480;-26
2022/04/11 01:58:04;;;;;;;6.60;4.18;;;;;;;0.59;62.84;101323.69;5027704;28;20041;-26
2022/04/11 02:00:30;;;;;;;5.35;3.70;;;;;;;0.57;62.77;101330.50;5028796;28;20029;-26
2022/04/11 02:02:55;;;;;;;6.43;3.83;;;;;;;0.55;62.70;101326.09;5027999;28;20033;-25
2022/04/11 02:05:21;;;;;;;5.35;4.03;;;;;;;0.54;63.10;101329.50;5024013;28;20022;-26
2022/04/11 02:07:46;;;;;;;5.50;3.97;;;;;;;0.50;62.68;101326.78;5023246;28;20057;-25
2022/04/11 02:10:11;;;;;;;4.80;4.28;;;;;;;0.49;62.75;101337.09;5022527;28;20101;-26
2022/04/11 02:12:38;;;;;;;5.80;3.75;;;;;;;0.47;62.99;101323.19;5018227;28;20385;-25
2022/04/11 02:15:04;;;;;;;6.32;4.30;;;;;;;0.45;62.82;101324.81;5019179;28;20033;-25
2022/04/11 02:17:30;;;;;;;6.10;4.32;;;;;;;0.42;62.89;101330.75;5021779;28;20022;-25
2022/04/11 02:19:55;;;;;;;5.68;4.18;;;;;;;0.40;63.27;101329.78;5022411;28;20553;-27
2022/04/11 02:22:20;;;;;;;7.47;4.07;;;;;;;0.37;63.22;101327.94;5023762;28;20111;-25
2022/04/11 02:24:46;;;;;;;6.45;4.20;;;;;;;0.35;62.61;101323.53;5025036;28;20043;-25
2022/04/11 02:27:11;;;;;;;6.75;3.90;;;;;;;0.33;63.02;101326.06;5023659;28;20030;-25
2022/04/11 02:29:36;;;;;;;6.15;3.90;;;;;;;0.30;63.24;101318.13;5025284;28;20626;-26
2022/04/11 02:32:02;;;;;;;4.45;3.97;;;;;;;0.28;62.99;101321.47;5026331;28;20033;-26
2022/04/11 02:34:29;;;;;;;3.55;3.00;;;;;;;0.26;63.04;101316.22;5025270;28;20038;-27
2022/04/11 02:36:54;;;;;;;5.72;3.47;;;;;;;0.24;63.00;101323.06;5024410;28;20026;-25
2022/04/11 02:39:20;;;;;;;5.60;3.78;;;;;;;0.23;62.95;101324.75;5024655;28;20403;-26
2022/04/11 02:41:45;;;;;;;6.65;4.45;;;;;;;0.19;63.17;101316.78;5027117;28;20037;-25
2022/04/11 02:44:11;;;;;;;6.60;3.60;;;;;;;0.17;63.43;101314.09;5026771;28;20123;-25
2022/04/11 02:46:36;;;;;;;6.57;3.90;;;;;;;0.15;63.02;101322.66;5028281;28;20033;-26
2022/04/11 02:49:02;;;;;;;5.15;4.00;;;;;;;0.13;63.15;101327.75;5026307;28;20109;-25
2022/04/11 02:51:27;;;;;;;5.95;4.05;;;;;;;0.11;62.93;101319.91;5023036;28;20029;-26
2022/04/11 02:53:52;;;;;;;6.68;3.97;;;;;;;0.07;63.06;101317.13;5027649;28;20168;-26
2022/04/11 02:56:18;;;;;;;6.90;3.92;;;;;;;0.05;63.50;101324.84;5029062;28;20442;-25
2022/04/11 02:58:43;;;;;;;7.82;4.22;;;;;;;0.04;63.58;101323.06;5025826;28;20029;-26
2022/04/11 03:01:09;;;;;;;6.93;4.38;;;;;;;0.02;63.55;101319.50;5027018;28;20033;-25
2022/04/11 03:03:36;;;;;;;10.30;5.30;;;;;;;-0.01;63.48;101319.38;5020447;28;20030;-25
2022/04/11 03:06:02;;;;;;;6.38;4.05;;;;;;;-0.04;63.40;101316.63;5022811;28;20029;-26
2022/04/11 03:08:27;;;;;;;8.50;4.63;;;;;;;-0.05;63.59;101320.06;5023367;28;20479;-25
2022/04/11 03:10:53;;;;;;;5.45;3.85;;;;;;;-0.07;63.64;101316.53;5021249;28;20032;-26
2022/04/11 03:13:18;;;;;;;4.97;3.72;;;;;;;-0.08;63.61;101317.31;5023169;28;20056;-26
2022/04/11 03:15:43;;;;;;;4.38;3.58;;;;;;;-0.11;63.05;101322.41;5003543;28;20068;-25
2022/04/11 03:18:09;;;;;;;8.65;4.45;;;;;;;-0.14;63.15;101324.00;5017001;28;20044;-25
2022/04/11 03:20:34;;;;;;;5.78;4.57;;;;;;;-0.17;63.04;101323.88;5019471;28;20071;-26
2022/04/11 03:22:59;;;;;;;7.70;4.25;;;;;;;-0.18;63.09;101324.69;5018434;28;20523;-26
2022/04/11 03:25:25;;;;;;;8.48;5.22;;;;;;;-0.21;63.31;101314.19;5019246;28;20033;-26
2022/04/11 03:27:50;;;;;;;8.00;4.38;;;;;;;-0.21;63.24;101321.97;5016455;28;20464;-25
2022/04/11 03:30:15;;;;;;;7.85;4.65;;;;;;;-0.23;63.22;101321.03;5025516;28;20063;-26
2022/04/11 03:32:41;;;;;;;8.82;4.90;;;;;;;-0.26;63.46;101313.97;5023713;28;20045;-26
2022/04/11 03:35:07;;;;;;;7.28;4.88;;;;;;;-0.27;63.74;101316.47;5029598;28;20033;-26
2022/04/11 03:37:32;;;;;;;9.15;5.18;;;;;;;-0.28;63.56;101314.72;5022370;28;20038;-26
2022/04/11 03:39:58;;;;;;;7.53;4.57;;;;;;;-0.31;63.21;101311.97;5025108;28;20032;-26
2022/04/11 03:42:23;;;;;;;7.47;5.00;;;;;;;-0.31;63.68;101314.56;5021027;28;20030;-26
2022/04/11 03:44:48;;;;;;;8.65;4.78;;;;;;;-0.34;63.49;101315.31;5027479;28;20112;-26
2022/04/11 03:47:14;;;;;;;8.45;4.80;;;;;;;-0.36;63.17;101303.13;5027157;28;20464;-25
2022/04/11 03:49:39;;;;;;;8.80;4.97;;;;;;;-0.37;63.58;101303.94;5027257;28;20048;-26
2022/04/11 03:52:05;;;;;;;7.25;5.13;;;;;;;-0.39;63.56;101307.31;5025823;28;20064;-26
2022/04/11 03:54:30;;;;;;;9.00;5.03;;;;;;;-0.40;63.63;101300.38;5023364;28;20057;-26
2022/04/11 03:56:56;;;;;;;9.02;5.40;;;;;;;-0.44;63.45;101295.88;5028329;28;20155;-25
2022/04/11 03:59:21;;;;;;;6.60;4.85;;;;;;;-0.45;63.61;101296.69;5026113;28;20029;-26
2022/04/11 04:01:47;;;;;;;10.60;5.78;;;;;;;-0.47;63.46;101295.72;5021824;28;20472;-26
2022/04/11 04:04:12;;;;;;;8.65;4.53;;;;;;;-0.49;63.72;101296.47;5025232;28;20052;-25
2022/04/11 04:06:37;;;;;;;8.18;4.50;;;;;;;-0.51;63.92;101299.00;5023203;28;20224;-25
2022/04/11 04:09:03;;;;;;;10.57;5.22;;;;;;;-0.53;63.29;101298.91;5025245;28;20029;-25
2022/04/11 04:11:28;;;;;;;7.07;5.35;;;;;;;-0.54;64.03;101291.06;5019253;28;20037;-26
2022/04/11 04:13:54;;;;;;;7.22;5.25;;;;;;;-0.56;63.72;101296.16;5025831;28;20021;-26
2022/04/11 04:16:19;;;;;;;6.93;4.88;;;;;;;-0.58;63.41;101289.16;5025823;28;20094;-25
2022/04/11 04:18:44;;;;;;;7.15;5.00;;;;;;;-0.58;63.88;101291.75;5018933;28;20442;-26
2022/04/11 04:21:10;;;;;;;8.85;4.85;;;;;;;-0.60;64.07;101291.66;5025687;28;20037;-26
2022/04/11 04:23:35;;;;;;;7.88;4.85;;;;;;;-0.62;63.85;101297.59;5024829;28;20034;-26
2022/04/11 04:26:01;;;;;;;8.13;5.40;;;;;;;-0.63;63.64;101291.56;5024690;28;20025;-26
2022/04/11 04:28:26;;;;;;;7.95;4.50;;;;;;;-0.65;64.08;101291.47;5025530;28;20033;-25
2022/04/11 04:30:51;;;;;;;8.98;4.38;;;;;;;-0.68;63.80;101293.91;5018910;28;20193;-25
2022/04/11 04:33:17;;;;;;;10.68;5.63;;;;;;;-0.68;63.82;101296.50;5027049;28;20075;-26
2022/04/11 04:35:42;;;;;;;7.03;5.18;;;;;;;-0.68;63.66;101303.38;5018881;28;20033;-26
2022/04/11 04:38:08;;;;;;;7.43;5.57;;;;;;;-0.69;64.28;101301.63;5024628;28;20018;-26
2022/04/11 04:40:33;;;;;;;7.32;4.95;;;;;;;-0.72;64.04;101302.38;5026342;28;20395;-26
2022/04/11 04:42:59;;;;;;;10.52;6.75;;;;;;;-0.74;63.92;101293.63;5022272;28;20029;-25
2022/04/11 04:45:24;;;;;;;10.13;6.32;;;;;;;-0.74;63.62;101297.94;5022768;28;20391;-24
2022/04/11 04:47:50;;;;;;;8.90;5.90;;;;;;;-0.75;64.34;101301.31;5027307;28;20411;-25
2022/04/11 04:50:16;;;;;;;6.68;5.63;;;;;;;-0.76;64.19;101308.22;5020475;28;20049;-24
2022/04/11 04:52:42;;;;;;;8.93;5.40;;;;;;;-0.77;64.07;101303.81;5025912;28;20029;-26
2022/04/11 04:55:08;;;;;;;9.68;6.00;;;;;;;-0.78;64.35;101307.25;5022268;28;20455;-25
2022/04/11 04:57:34;;;;;;;7.07;5.32;;;;;;;-0.78;63.90;101309.81;5023178;28;20036;-26
2022/04/11 04:59:59;;;;;;;8.68;5.90;;;;;;;-0.79;63.80;101321.00;5020491;28;20047;-26
2022/04/11 05:02:25;;;;;;;8.45;5.65;;;;;;;-0.80;64.34;101325.28;5028415;28;20022;-26
2022/04/11 05:04:50;;;;;;;11.55;6.82;;;;;;;-0.81;64.52;101318.34;5022626;28;20029;-25
2022/04/11 05:07:16;;;;;;;8.57;5.13;;;;;;;-0.81;64.15;101312.25;5017283;28;20025;-25
2022/04/11 05:09:41;;;;;;;7.65;5.60;;;;;;;-0.81;64.14;101322.63;5022389;28;20021;-26
2022/04/11 05:12:07;;;;;;;9.10;4.95;;;;;;;-0.81;64.07;101313.16;5019591;28;20048;-25
2022/04/11 05:14:32;;;;;;;8.68;5.70;;;;;;;-0.82;64.25;101321.75;5022234;28;20049;-25
2022/04/11 05:16:58;;;;;;;8.15;5.25;;;;;;;-0.81;64.36;101317.44;5027814;28;20025;-25
2022/04/11 05:19:23;;;;;;;10.90;6.45;;;;;;;-0.82;64.37;101324.34;5025475;28;20032;-26
2022/04/11 05:21:48;;;;;;;8.88;6.60;;;;;;;-0.81;64.08;101325.22;5021618;28;20029;-26
2022/04/11 05:24:14;;;;;;;8.73;6.10;;;;;;;-0.82;64.21;101320.88;5021197;28;20037;-26
2022/04/11 05:26:39;;;;;;;11.25;6.45;;;;;;;-0.81;64.72;101317.44;5022555;28;20438;-25
2022/04/11 05:29:05;;;;;;;8.73;5.97;;;;;;;-0.81;64.90;101322.63;5025130;28;20025;-25
2022/04/11 05:31:30;;;;;;;13.30;6.38;;;;;;;-0.79;64.40;101333.97;5022324;28;20025;-26
2022/04/11 05:33:56;;;;;;;10.93;6.55;;;;;;;-0.80;65.02;101325.28;5024869;28;20025;-25
2022/04/11 05:36:21;;;;;;;7.50;5.70;;;;;;;-0.78;64.58;101327.97;5018089;28;20014;-26
2022/04/11 05:38:47;;;;;;;8.32;5.97;;;;;;;-0.77;64.30;101327.13;5020480;28;20085;-26
2022/04/11 05:41:14;;;;;;;8.70;5.32;;;;;;;-0.75;64.62;101330.72;5023660;28;20029;-26
2022/04/11 05:43:40;;;;;;;8.93;5.32;;;;;;;-0.73;64.65;101336.84;5025473;28;20606;-26
2022/04/11 05:46:05;;;;;;;7.82;5.28;;;;;;;-0.73;65.01;101331.66;5019350;28;20042;-26
2022/04/11 05:48:32;;;;;;;6.97;5.57;;;;;;;-0.71;64.52;101330.03;5016829;28;20025;-26
2022/04/11 05:50:59;;;;;;;8.80;5.65;;;;;;;-0.69;64.97;101333.59;5017231;28;20387;-26
2022/04/11 05:53:25;;;;;;;7.43;6.22;;;;;;;-0.66;65.03;101343.22;5007082;28;20388;-25
2022/04/11 05:55:50;;;;;;;6.90;4.82;;;;;;;-0.64;64.75;101341.56;5024614;28;20078;-26
2022/04/11 05:58:16;;;;;;;7.20;5.82;;;;;;;-0.61;64.40;101346.00;5026184;28;20380;-26
2022/04/11 06:00:41;;;;;;;6.25;4.68;;;;;;;-0.58;64.73;101346.16;5026962;28;20444;-25
2022/04/11 06:03:06;;;;;;;7.43;5.07;;;;;;;-0.54;64.62;101348.06;5021293;28;20036;-26
2022/04/11 06:05:32;;;;;;;8.68;5.32;;;;;;;-0.52;64.73;101349.06;5023073;28;20399;-23
2022/04/11 06:07:57;;;;;;;8.68;5.15;;;;;;;-0.48;65.06;101348.38;5019766;28;20083;-24
2022/04/11 06:10:22;;;;;;;8.48;5.10;;;;;;;-0.43;64.46;101348.59;5023427;28;20025;-26
2022/04/11 06:12:50;;;;;;;7.40;5.35;;;;;;;-0.37;64.71;101345.41;5020303;28;20152;-25
2022/04/11 06:15:17;;;;;;;6.68;5.22;;;;;;;-0.33;65.08;101344.72;5020850;28;20474;-26
2022/04/11 06:17:43;;;;;;;5.53;4.93;;;;;;;-0.27;64.57;101342.41;5020530;28;20468;-24
2022/04/11 06:20:10;;;;;;;7.55;4.72;;;;;;;-0.23;64.75;101349.53;5020327;28;20033;-26
2022/04/11 06:22:40;;;;;;;4.72;4.18;;;;;;;-0.17;65.17;101344.63;5021017;28;20029;-25
2022/04/11 06:25:08;;;;;;;6.32;4.60;;;;;;;-0.10;65.24;101352.69;5023425;28;20037;-24
2022/04/11 06:27:34;;;;;;;5.32;4.40;;;;;;;-0.05;65.67;101344.28;5023719;28;20036;-26
2022/04/11 06:29:59;;;;;;;5.45;4.70;;;;;;;0.03;65.13;101341.16;5022473;28;20272;-26
2022/04/11 06:32:29;;;;;;;5.47;4.80;;;;;;;0.09;65.60;101341.41;5022554;28;20026;-26
2022/04/11 06:34:55;;;;;;;6.18;4.75;;;;;;;0.17;65.94;101341.78;5030115;28;20390;-25
2022/04/11 06:37:21;;;;;;;6.28;4.55;;;;;;;0.24;65.94;101336.03;5024484;28;20018;-25
2022/04/11 06:39:47;;;;;;;6.38;4.18;;;;;;;0.31;65.81;101335.50;5020624;28;21320;-25
2022/04/11 06:42:13;;;;;;;6.32;4.13;;;;;;;0.40;66.00;101337.56;5026015;28;20069;-25
2022/04/11 06:44:39;;;;;;;5.35;4.57;;;;;;;0.49;66.42;101342.28;5026932;28;20029;-26
2022/04/11 06:47:05;;;;;;;5.45;4.45;;;;;;;0.59;66.58;101339.28;5022720;28;20072;-25
2022/04/11 06:49:30;;;;;;;4.93;4.05;;;;;;;0.70;67.48;101336.25;5022643;28;20399;-26
2022/04/11 06:51:56;;;;;;;6.45;4.18;;;;;;;0.80;67.63;101334.94;5030167;28;20130;-25
2022/04/11 06:54:21;;;;;;;8.30;4.53;;;;;;;0.91;68.50;101335.34;5024157;28;20079;-26
2022/04/11 06:56:47;;;;;;;5.72;4.07;;;;;;;1.01;67.90;101332.31;5025103;28;20083;-25
2022/04/11 06:59:12;;;;;;;4.82;4.35;;;;;;;1.12;69.63;101331.06;5022976;28;20029;-25
2022/04/11 07:01:38;;;;;;;4.63;3.75;;;;;;;1.22;69.37;101339.19;5023640;28;20029;-25
2022/04/11 07:04:03;;;;;;;5.60;4.32;;;;;;;1.34;70.26;101337.13;5019177;28;20042;-25
2022/04/11 07:06:29;;;;;;;6.70;3.95;;;;;;;1.47;68.94;101332.38;5022347;28;20044;-25
2022/04/11 07:08:54;;;;;;;3.88;3.42;;;;;;;1.54;67.02;101335.28;5031166;28;20021;-26
2022/04/11 07:11:19;;;;;;;4.10;3.70;;;;;;;1.65;67.57;101333.09;5030442;28;20021;-25
2022/04/11 07:13:45;;;;;;;4.15;3.72;;;;;;;1.81;69.11;101346.69;5031463;28;20025;-24
2022/04/11 07:16:11;;;;;;;4.07;3.65;;;;;;;1.93;69.82;101348.84;5023226;28;20029;-25
2022/04/11 07:18:36;;;;;;;4.38;3.78;;;;;;;2.06;69.65;101342.38;5018911;28;20032;-26
2022/04/11 07:21:02;;;;;;;6.47;4.10;;;;;;;2.16;69.47;101341.91;5019100;28;20036;-24
2022/04/11 07:23:27;;;;;;;7.07;4.38;;;;;;;2.31;70.47;101344.16;5019156;28;21874;-26
2022/04/11 07:25:53;;;;;;;7.25;4.10;;;;;;;2.44;69.93;101345.47;5017757;28;20116;-26
2022/04/11 07:28:18;;;;;;;5.25;4.25;;;;;;;2.63;71.35;101338.31;5023577;28;20041;-26
2022/04/11 07:30:44;;;;;;;5.15;3.95;;;;;;;2.73;69.85;101338.63;5024573;28;20021;-26
2022/04/11 07:33:10;;;;;;;5.60;3.83;;;;;;;2.91;71.86;101333.16;5020860;28;20037;-26
2022/04/11 07:35:35;;;;;;;5.93;4.50;;;;;;;3.07;71.94;101335.41;5023750;28;20030;-25
2022/04/11 07:38:01;;;;;;;7.40;4.20;;;;;;;3.18;71.41;101327.06;5018278;28;20022;-25
2022/04/11 07:40:28;;;;;;;6.13;4.40;;;;;;;3.33;71.01;101337.09;5018689;28;20028;-26
2022/04/11 07:42:54;;;;;;;6.97;4.57;;;;;;;3.47;71.34;101335.81;5024720;28;20044;-26
2022/04/11 07:45:22;;;;;;;6.22;4.80;;;;;;;3.65;71.93;101334.59;5015468;28;20022;-25
2022/04/11 07:47:48;;;;;;;8.93;4.55;;;;;;;3.82;72.62;101337.72;5018791;28;20120;-27
2022/04/11 07:50:14;;;;;;;5.45;4.53;;;;;;;3.95;72.06;101341.56;5020567;28;20450;-26
2022/04/11 07:52:42;;;;;;;8.57;4.85;;;;;;;4.09;71.75;101341.06;5019405;28;20466;-26
2022/04/11 07:55:11;;;;;;;5.03;4.53;;;;;;;4.26;71.78;101338.06;5019837;28;20039;-26
2022/04/11 07:57:36;;;;;;;5.10;4.28;;;;;;;4.40;71.69;101333.22;5020804;28;20098;-25
2022/04/11 08:00:06;;;;;;;5.85;4.25;;;;;;;4.52;69.76;101330.03;5018129;28;20446;-26
2022/04/11 08:02:31;;;;;;;5.28;4.47;;;;;;;4.67;70.62;101335.66;5017105;28;20029;-26
2022/04/11 08:05:01;;;;;;;6.78;4.78;;;;;;;4.85;71.85;101329.13;5018333;28;20115;-26
2022/04/11 08:07:26;;;;;;;5.80;4.30;;;;;;;4.98;71.05;101323.38;5017924;28;20025;-26
2022/04/11 08:09:51;;;;;;;9.05;3.78;;;;;;;5.14;71.95;101331.59;5015889;28;20114;-26
2022/04/11 08:12:17;;;;;;;4.13;3.58;;;;;;;5.33;72.65;101325.06;5016861;28;20439;-25
2022/04/11 08:14:43;;;;;;;5.10;4.10;;;;;;;5.43;71.64;101322.66;5018156;28;20052;-26
2022/04/11 08:17:08;;;;;;;5.53;3.50;;;;;;;5.61;72.18;101327.41;5020151;28;20100;-26
2022/04/11 08:19:34;;;;;;;5.57;3.95;;;;;;;5.81;72.21;101319.09;5021036;28;20143;-26
2022/04/11 08:21:59;;;;;;;5.28;3.95;;;;;;;5.98;72.33;101317.72;5018654;28;20075;-25
2022/04/11 08:24:24;;;;;;;4.53;3.50;;;;;;;6.16;72.06;101313.72;5023675;28;20724;-26
2022/04/11 08:26:50;;;;;;;3.95;2.92;;;;;;;6.35;71.89;101311.47;5019765;28;20448;-25
2022/04/11 08:29:17;;;;;;;3.35;2.85;;;;;;;6.49;70.50;101315.22;5016045;28;20030;-26
2022/04/11 08:31:43;;;;;;;6.63;3.17;;;;;;;6.63;69.25;101306.72;5016629;28;20435;-25
2022/04/11 08:34:09;;;;;;;6.07;3.10;;;;;;;6.79;70.68;101308.75;5019641;28;20025;-25
2022/04/11 08:36:34;;;;;;;4.63;2.88;;;;;;;6.96;71.25;101310.75;5018020;28;20049;-26
2022/04/11 08:39:00;;;;;;;5.45;3.08;;;;;;;7.13;71.04;101310.13;5017324;28;20072;-26
2022/04/11 08:41:27;;;;;;;3.30;3.00;;;;;;;7.31;69.60;101313.03;5016626;28;20028;-26
2022/04/11 08:43:52;;;;;;;2.70;2.50;;;;;;;7.44;69.40;101310.63;5024081;28;20029;-26
2022/04/11 08:46:20;;;;;;;5.60;2.58;;;;;;;7.60;68.89;101305.56;5019863;28;20404;-26
2022/04/11 08:48:45;;;;;;;3.45;3.15;;;;;;;7.75;68.22;101313.66;5019475;28;20214;-25
2022/04/11 08:51:11;;;;;;;3.47;2.67;;;;;;;7.92;69.31;101315.59;5018450;28;20494;-26
2022/04/11 08:53:37;;;;;;;3.72;2.38;;;;;;;8.09;68.97;101307.91;5015293;28;20025;-26
2022/04/11 08:56:02;;;;;;;3.15;2.70;;;;;;;8.23;68.51;101307.22;5014221;28;20091;-26
2022/04/11 08:58:28;;;;;;;4.47;2.63;;;;;;;8.35;67.71;101309.97;5018546;28;20021;-26
2022/04/11 09:00:53;;;;;;;2.78;2.47;;;;;;;8.49;67.02;101307.47;5019312;28;20021;-26
2022/04/11 09:03:18;;;;;;;2.60;2.40;;;;;;;8.61;66.07;101301.47;5018376;28;20148;-27
2022/04/11 09:06:04;;;;;;;3.90;2.13;;;;;;;8.80;68.01;101312.16;5018310;28;20396;-26
2022/04/11 09:08:43;;;;;;;4.03;2.13;;;;;;;8.92;66.93;101301.75;5020169;28;20037;-26
2022/04/11 09:11:09;;;;;;;3.15;2.40;;;;;;;9.06;67.17;101304.47;5013451;28;20033;-26
2022/04/11 09:13:51;;;;;;;2.22;1.75;;;;;;;9.24;66.01;101308.13;5017960;28;20034;-27
2022/04/11 09:16:17;;;;;;;4.85;2.40;;;;;;;9.35;65.67;101306.44;5015978;28;20021;-25
2022/04/11 09:18:48;;;;;;;2.85;2.13;;;;;;;9.49;65.46;101300.34;5017628;28;20022;-27
2022/04/11 09:21:13;;;;;;;3.40;2.30;;;;;;;9.61;64.43;101303.03;5016535;28;20032;-26
2022/04/11 09:23:39;;;;;;;2.35;1.80;;;;;;;9.75;64.67;101299.59;5017970;28;20030;-26
2022/04/11 09:26:21;;;;;;;3.33;2.00;;;;;;;9.86;63.88;101292.63;5015835;28;20503;-26
2022/04/11 09:29:00;;;;;;;2.20;1.83;;;;;;;10.03;65.46;101294.44;5018424;28;20263;-26
2022/04/11 09:31:26;;;;;;;4.47;2.28;;;;;;;10.16;65.08;101295.34;5016877;28;20041;-26
2022/04/11 09:33:51;;;;;;;2.60;1.70;;;;;;;10.30;64.13;101297.16;5016471;28;20048;-26
2022/04/11 09:36:17;;;;;;;4.28;2.38;;;;;;;10.42;64.64;101291.00;5017832;28;20072;-26
2022/04/11 09:38:42;;;;;;;1.58;1.40;;;;;;;10.52;61.55;101285.78;5021621;28;20520;-26
2022/04/11 09:41:07;;;;;;;2.97;2.05;;;;;;;10.61;60.96;101292.81;5015863;28;20487;-25
2022/04/11 09:43:34;;;;;;;2.97;2.50;;;;;;;10.76;63.91;101291.06;5015527;28;20033;-26
2022/04/11 09:46:02;;;;;;;2.85;2.22;;;;;;;10.91;64.11;101275.22;5014995;28;20018;-26
2022/04/11 09:48:29;;;;;;;4.47;2.15;;;;;;;11.01;60.74;101281.38;5016281;28;20034;-25
2022/04/11 09:50:56;;;;;;;1.95;1.85;;;;;;;11.11;57.83;101269.03;5018347;28;20025;-26
2022/04/11 09:53:23;;;;;;;4.15;2.30;;;;;;;11.20;57.33;101264.63;5021804;28;20025;-26
2022/04/11 09:55:50;;;;;;;3.83;2.30;;;;;;;11.30;58.10;101276.91;5018412;28;20434;-26
2022/04/11 09:58:18;;;;;;;3.50;2.63;;;;;;;11.37;55.55;101272.53;5012923;28;20064;-26
2022/04/11 10:00:43;;;;;;;3.25;2.15;;;;;;;11.45;56.97;101277.75;5018373;28;20033;-26
2022/04/11 10:03:09;;;;;;;3.80;2.15;;;;;;;11.48;56.49;101272.47;5018153;28;20025;-26
2022/04/11 10:05:35;;;;;;;3.92;2.50;;;;;;;11.53;57.56;101265.41;5020583;28;20515;-25
2022/04/11 10:08:06;;;;;;;4.10;2.28;;;;;;;11.60;58.09;101258.34;5023720;28;20033;-26
2022/04/11 10:10:38;;;;;;;2.22;2.03;;;;;;;11.70;60.69;101259.19;5020821;28;20503;-26
2022/04/11 10:13:05;;;;;;;4.93;2.30;;;;;;;11.76;58.55;101253.88;5020712;28;20462;-26
2022/04/11 10:15:31;;;;;;;4.20;2.75;;;;;;;11.79;55.92;101248.56;5021435;28;20025;-25
2022/04/11 10:17:56;;;;;;;5.25;2.67;;;;;;;11.89;59.97;101249.41;5021586;28;20407;-25
2022/04/11 10:20:24;;;;;;;2.95;2.60;;;;;;;11.97;57.26;101249.38;5018472;28;20048;-26
2022/04/11 10:23:12;;;;;;;4.63;2.47;;;;;;;12.05;58.14;101244.91;5022493;28;20048;-26
2022/04/11 10:25:50;;;;;;;3.08;2.30;;;;;;;12.10;57.35;101248.44;5023193;28;20037;-26
2022/04/11 10:28:20;;;;;;;3.92;3.00;;;;;;;12.21;60.18;101242.19;5022264;28;20022;-26
2022/04/11 10:31:03;;;;;;;2.45;2.22;;;;;;;12.26;58.35;101241.28;5022447;28;20475;-25
2022/04/11 10:33:45;;;;;;;3.75;2.60;;;;;;;12.37;59.22;101246.47;5020839;28;20067;-25
2022/04/11 10:36:30;;;;;;;5.70;2.65;;;;;;;12.42;55.44;101250.00;5006684;28;20065;-26
2022/04/11 10:39:17;;;;;;;6.10;3.15;;;;;;;12.51;55.38;101254.31;5020409;28;20040;-25
2022/04/11 10:41:54;;;;;;;5.22;2.50;;;;;;;12.57;54.82;101253.38;5020301;28;20108;-25
2022/04/11 10:44:29;;;;;;;4.05;2.70;;;;;;;12.62;54.92;101234.81;5017198;28;20484;-26
2022/04/11 10:47:22;;;;;;;3.22;2.65;;;;;;;12.68;55.41;101238.28;5020404;28;20029;-26
2022/04/11 10:49:48;;;;;;;2.40;2.30;;;;;;;12.79;56.91;101232.03;5023026;28;20022;-26
2022/04/11 10:52:32;;;;;;;2.50;2.30;;;;;;;12.88;56.79;101225.78;5019114;28;20022;-26
2022/04/11 10:55:10;;;;;;;3.58;2.53;;;;;;;12.91;55.89;101226.59;5019797;28;20044;-26
2022/04/11 10:57:42;;;;;;;4.32;2.53;;;;;;;13.06;56.65;101224.69;5019860;28;20473;-24
2022/04/11 11:00:14;;;;;;;3.58;3.05;;;;;;;13.17;56.91;101229.91;5019733;28;20109;-25
2022/04/11 11:02:56;;;;;;;4.47;3.00;;;;;;;13.19;53.27;101231.63;5017849;28;20083;-26
2022/04/11 11:05:25;;;;;;;2.50;2.30;;;;;;;13.29;53.87;101228.88;5023109;28;20382;-26
2022/04/11 11:08:11;;;;;;;4.88;3.22;;;;;;;13.41;54.83;101222.56;5019714;28;20021;-25
2022/04/11 11:10:54;;;;;;;2.80;2.60;;;;;;;13.44;53.43;101226.03;5019456;28;20024;-25
2022/04/11 11:13:22;;;;;;;2.60;2.40;;;;;;;13.46;52.53;101218.94;5020100;28;20025;-26
2022/04/11 11:15:48;;;;;;;4.57;2.75;;;;;;;13.53;52.26;101213.59;5019798;28;20036;-26
2022/04/11 11:18:13;;;;;;;2.53;2.33;;;;;;;13.59;52.81;101210.88;5017726;28;20022;-26
2022/04/11 11:20:57;;;;;;;2.75;2.50;;;;;;;13.68;53.54;101199.28;5018173;28;20069;-25
2022/04/11 11:23:33;;;;;;;3.95;2.58;;;;;;;13.82;54.10;101204.38;5016346;28;20477;-25
2022/04/11 11:26:09;;;;;;;2.88;2.55;;;;;;;13.87;52.90;101193.72;5016370;28;20014;-26
2022/04/11 11:28:35;;;;;;;2.92;2.45;;;;;;;13.91;52.00;101183.03;5019487;28;20216;-26